createdAt,value
2023-12-26T00:01:09.363Z,100.00
2023-12-26T00:03:36.253Z,100.00
2023-12-26T00:06:03.163Z,100.00
2023-12-26T00:08:30.031Z,100.00
2023-12-26T00:10:56.868Z,100.00
2023-12-26T00:13:23.582Z,100.00
2023-12-26T00:15:52.178Z,100.00
2023-12-26T00:18:19.087Z,100.00
2023-12-26T00:20:46.082Z,100.00
2023-12-26T00:23:13.039Z,100.00
2023-12-26T00:25:39.845Z,100.00
2023-12-26T00:28:06.885Z,100.00
2023-12-26T00:30:33.738Z,100.00
2023-12-26T00:33:00.782Z,100.00
2023-12-26T00:35:27.751Z,100.00
2023-12-26T00:37:54.592Z,100.00
2023-12-26T00:40:22.025Z,100.00
2023-12-26T00:42:48.885Z,100.00
2023-12-26T00:45:17.253Z,100.00
2023-12-26T00:47:44.191Z,100.00
2023-12-26T00:50:15.100Z,100.00
2023-12-26T00:52:42.125Z,100.00
2023-12-26T00:55:09.512Z,100.00
2023-12-26T00:57:36.706Z,100.00
2023-12-26T01:00:06.839Z,100.00
2023-12-26T01:02:33.737Z,100.00
2023-12-26T01:05:00.599Z,100.00
2023-12-26T01:07:27.403Z,100.00
2023-12-26T01:09:55.784Z,100.00
2023-12-26T01:12:22.603Z,100.00
2023-12-26T01:14:49.345Z,100.00
2023-12-26T01:17:16.082Z,100.00
2023-12-26T01:19:43.027Z,100.00
2023-12-26T01:22:09.837Z,100.00
2023-12-26T01:24:36.611Z,100.00
2023-12-26T01:27:04.122Z,100.00
2023-12-26T01:29:30.941Z,100.00
2023-12-26T01:31:58.923Z,100.00
2023-12-26T01:34:25.762Z,100.00
2023-12-26T01:36:52.518Z,100.00
2023-12-26T01:39:19.383Z,100.00
2023-12-26T01:41:46.490Z,100.00
2023-12-26T01:44:14.067Z,100.00
2023-12-26T01:46:41.358Z,100.00
2023-12-26T01:49:08.716Z,100.00
2023-12-26T01:51:35.926Z,100.00
2023-12-26T01:54:03.049Z,100.00
2023-12-26T01:56:30.546Z,100.00
2023-12-26T01:58:57.490Z,100.00
2023-12-26T02:01:24.330Z,100.00
2023-12-26T02:03:51.261Z,100.00
2023-12-26T02:06:18.064Z,100.00
2023-12-26T02:08:45.091Z,100.00
2023-12-26T02:11:12.141Z,100.00
2023-12-26T02:13:38.968Z,100.00
2023-12-26T02:16:16.751Z,100.00
2023-12-26T02:18:44.315Z,100.00
2023-12-26T02:21:12.118Z,100.00
2023-12-26T02:23:41.380Z,100.00
2023-12-26T02:26:08.892Z,100.00
2023-12-26T02:28:36.523Z,100.00
2023-12-26T02:31:05.452Z,100.00
2023-12-26T02:33:33.237Z,100.00
2023-12-26T02:36:00.744Z,100.00
2023-12-26T02:38:27.663Z,100.00
2023-12-26T02:40:54.671Z,100.00
2023-12-26T02:43:22.610Z,100.00
2023-12-26T02:45:50.562Z,100.00
2023-12-26T02:48:18.395Z,100.00
2023-12-26T02:50:46.333Z,100.00
2023-12-26T02:53:13.353Z,100.00
2023-12-26T02:55:40.158Z,100.00
2023-12-26T02:58:06.943Z,100.00
2023-12-26T03:00:33.781Z,100.00
2023-12-26T03:03:00.834Z,100.00
2023-12-26T03:05:27.703Z,100.00
2023-12-26T03:07:54.523Z,100.00
2023-12-26T03:10:21.277Z,100.00
2023-12-26T03:12:48.013Z,100.00
2023-12-26T03:15:17.023Z,100.00
2023-12-26T03:17:44.568Z,100.00
2023-12-26T03:20:11.976Z,100.00
2023-12-26T03:22:40.949Z,100.00
2023-12-26T03:25:08.780Z,100.00
2023-12-26T03:27:35.715Z,100.00
2023-12-26T03:30:02.712Z,100.00
2023-12-26T03:32:29.553Z,100.00
2023-12-26T03:34:56.300Z,100.00
2023-12-26T03:37:23.118Z,100.00
2023-12-26T03:39:49.931Z,100.00
2023-12-26T03:42:16.683Z,100.00
2023-12-26T03:44:45.401Z,100.00
2023-12-26T03:47:12.287Z,100.00
2023-12-26T03:49:39.247Z,100.00
2023-12-26T03:52:06.192Z,100.00
2023-12-26T03:54:32.944Z,100.00
2023-12-26T03:56:59.703Z,100.00
2023-12-26T03:59:26.454Z,100.00
2023-12-26T04:01:53.119Z,100.00
2023-12-26T04:04:20.138Z,100.00
2023-12-26T04:06:47.010Z,100.00
2023-12-26T04:09:14.487Z,100.00
2023-12-26T04:11:41.545Z,100.00
2023-12-26T04:14:08.341Z,100.00
2023-12-26T04:16:35.031Z,100.00
2023-12-26T04:19:02.070Z,100.00
2023-12-26T04:21:28.999Z,100.00
2023-12-26T04:23:55.792Z,100.00
2023-12-26T04:26:22.535Z,100.00
2023-12-26T04:28:49.291Z,100.00
2023-12-26T04:31:16.014Z,100.00
2023-12-26T04:33:42.904Z,100.00
2023-12-26T04:36:09.737Z,100.00
2023-12-26T04:38:36.477Z,100.00
2023-12-26T04:41:03.624Z,100.00
2023-12-26T04:43:30.519Z,100.00
2023-12-26T04:45:57.210Z,100.00
2023-12-26T04:48:23.991Z,100.00
2023-12-26T04:50:50.874Z,100.00
2023-12-26T04:53:17.612Z,100.00
2023-12-26T04:55:44.371Z,100.00
2023-12-26T04:58:11.159Z,100.00
2023-12-26T05:00:38.642Z,100.00
2023-12-26T05:03:05.819Z,100.00
2023-12-26T05:05:32.772Z,100.00
2023-12-26T05:07:59.477Z,100.00
2023-12-26T05:10:26.209Z,100.00
2023-12-26T05:12:54.343Z,100.00
2023-12-26T05:15:21.366Z,100.00
2023-12-26T05:17:48.203Z,100.00
2023-12-26T05:20:21.614Z,100.00
2023-12-26T05:22:57.172Z,100.00
2023-12-26T05:25:26.301Z,100.00
2023-12-26T05:27:53.260Z,100.00
2023-12-26T05:30:20.329Z,100.00
2023-12-26T05:32:47.485Z,100.00
2023-12-26T05:35:14.363Z,100.00
2023-12-26T05:37:41.246Z,100.00
2023-12-26T05:40:08.600Z,100.00
2023-12-26T05:42:35.406Z,100.00
2023-12-26T05:45:04.921Z,100.00
2023-12-26T05:47:32.151Z,100.00
2023-12-26T05:50:00.777Z,100.00
2023-12-26T05:52:28.432Z,100.00
2023-12-26T05:54:56.518Z,100.00
2023-12-26T05:57:23.388Z,100.00
2023-12-26T05:59:50.616Z,100.00
2023-12-26T06:02:17.450Z,100.00
2023-12-26T06:04:44.165Z,100.00
2023-12-26T06:07:10.976Z,100.00
2023-12-26T06:09:37.732Z,100.00
2023-12-26T06:12:05.114Z,100.00
2023-12-26T06:14:31.865Z,100.00
2023-12-26T06:17:00.668Z,100.00
2023-12-26T06:19:27.556Z,100.00
2023-12-26T06:21:54.349Z,100.00
2023-12-26T06:24:21.123Z,100.00
2023-12-26T06:26:47.817Z,100.00
2023-12-26T06:29:14.529Z,100.00
2023-12-26T06:31:41.519Z,100.00
2023-12-26T06:34:08.786Z,100.00
2023-12-26T06:36:35.625Z,100.00
2023-12-26T06:39:02.614Z,100.00
2023-12-26T06:41:30.336Z,100.00
2023-12-26T06:43:57.841Z,100.00
2023-12-26T06:46:24.645Z,100.00
2023-12-26T06:48:51.466Z,100.00
2023-12-26T06:51:18.375Z,100.00
2023-12-26T06:53:45.301Z,100.00
2023-12-26T06:56:12.129Z,100.00
2023-12-26T06:58:38.922Z,100.00
2023-12-26T07:01:10.765Z,100.00
2023-12-26T07:03:37.708Z,100.00
2023-12-26T07:06:04.675Z,100.00
2023-12-26T07:08:31.875Z,100.00
2023-12-26T07:10:58.650Z,100.00
2023-12-26T07:13:25.365Z,100.00
2023-12-26T07:15:53.520Z,100.00
2023-12-26T07:18:20.570Z,100.00
2023-12-26T07:20:47.470Z,100.00
2023-12-26T07:23:14.290Z,100.00
2023-12-26T07:25:42.454Z,100.00
2023-12-26T07:28:09.337Z,100.00
2023-12-26T07:30:36.314Z,100.00
2023-12-26T07:33:03.326Z,100.00
2023-12-26T07:35:31.683Z,100.00
2023-12-26T07:37:58.503Z,100.00
2023-12-26T07:40:25.262Z,100.00
2023-12-26T07:42:52.052Z,100.00
2023-12-26T07:45:21.570Z,100.00
2023-12-26T07:47:48.531Z,100.00
2023-12-26T07:50:15.642Z,100.00
2023-12-26T07:52:42.605Z,100.00
2023-12-26T07:55:09.433Z,100.00
2023-12-26T07:57:36.201Z,100.00
2023-12-26T08:00:03.273Z,100.00
2023-12-26T08:02:30.091Z,100.00
2023-12-26T08:04:56.835Z,100.00
2023-12-26T08:07:23.623Z,100.00
2023-12-26T08:09:50.371Z,100.00
2023-12-26T08:12:17.136Z,100.00
2023-12-26T08:14:44.108Z,100.00
2023-12-26T08:17:10.893Z,100.00
2023-12-26T08:19:39.030Z,100.00
2023-12-26T08:22:05.906Z,100.00
2023-12-26T08:24:32.666Z,100.00
2023-12-26T08:26:59.489Z,100.00
2023-12-26T08:29:26.313Z,100.00
2023-12-26T08:31:53.049Z,100.00
2023-12-26T08:34:20.060Z,100.00
2023-12-26T08:36:46.987Z,100.00
2023-12-26T08:39:13.756Z,100.00
2023-12-26T08:41:40.600Z,100.00
2023-12-26T08:44:07.394Z,100.00
2023-12-26T08:46:34.151Z,100.00
2023-12-26T08:49:01.084Z,100.00
2023-12-26T08:51:28.694Z,100.00
2023-12-26T08:53:55.871Z,100.00
2023-12-26T08:56:27.409Z,100.00
2023-12-26T08:58:54.137Z,100.00
2023-12-26T09:01:21.100Z,100.00
2023-12-26T09:03:47.978Z,100.00
2023-12-26T09:06:14.920Z,100.00
2023-12-26T09:08:42.541Z,100.00
2023-12-26T09:11:09.379Z,100.00
2023-12-26T09:13:36.181Z,100.00
2023-12-26T09:16:02.952Z,100.00
2023-12-26T09:18:29.751Z,100.00
2023-12-26T09:20:56.524Z,100.00
2023-12-26T09:23:23.278Z,100.00
2023-12-26T09:25:50.033Z,100.00
2023-12-26T09:28:18.067Z,100.00
2023-12-26T09:30:44.971Z,100.00
2023-12-26T09:33:11.909Z,100.00
2023-12-26T09:35:38.946Z,100.00
2023-12-26T09:38:05.696Z,100.00
2023-12-26T09:40:32.578Z,100.00
2023-12-26T09:43:03.509Z,100.00
2023-12-26T09:45:31.955Z,100.00
2023-12-26T09:47:59.161Z,100.00
2023-12-26T09:50:26.179Z,100.00
2023-12-26T09:52:57.588Z,100.00
2023-12-26T09:55:24.627Z,100.00
2023-12-26T09:57:51.676Z,98.70
2023-12-26T10:00:18.763Z,97.16
2023-12-26T10:02:46.997Z,94.60
2023-12-26T10:05:14.157Z,91.85
2023-12-26T10:07:41.003Z,94.40
2023-12-26T10:10:08.191Z,93.23
2023-12-26T10:12:35.744Z,93.51
2023-12-26T10:15:04.280Z,89.72
2023-12-26T10:17:32.536Z,87.87
2023-12-26T10:20:00.464Z,86.11
2023-12-26T10:22:30.274Z,84.96
2023-12-26T10:24:57.064Z,85.51
2023-12-26T10:27:24.655Z,83.62
2023-12-26T10:29:52.795Z,84.18
2023-12-26T10:32:19.721Z,81.85
2023-12-26T10:34:46.664Z,80.78
2023-12-26T10:37:13.505Z,81.74
2023-12-26T10:39:42.670Z,81.95
2023-12-26T10:42:12.143Z,81.06
2023-12-26T10:44:58.217Z,80.97
2023-12-26T10:47:28.238Z,79.25
2023-12-26T10:49:57.270Z,78.91
2023-12-26T10:52:27.340Z,76.40
2023-12-26T10:54:57.941Z,76.72
2023-12-26T10:57:25.773Z,75.04
2023-12-26T11:00:49.084Z,76.99
2023-12-26T11:04:12.191Z,76.32
2023-12-26T11:07:16.335Z,77.28
2023-12-26T11:10:39.056Z,76.95
2023-12-26T11:14:02.476Z,75.05
2023-12-26T11:17:25.305Z,74.41
2023-12-26T11:20:48.006Z,76.56
2023-12-26T11:24:10.884Z,77.58
2023-12-26T11:27:34.001Z,76.58
2023-12-26T11:30:38.380Z,75.11
2023-12-26T11:34:01.498Z,76.13
2023-12-26T11:37:24.821Z,76.72
2023-12-26T11:40:29.095Z,76.26
2023-12-26T11:43:52.677Z,77.96
2023-12-26T11:47:25.526Z,78.90
2023-12-26T11:50:48.418Z,78.63
2023-12-26T11:54:11.142Z,79.77
2023-12-26T11:57:34.177Z,78.95
2023-12-26T12:00:57.681Z,79.37
2023-12-26T12:04:20.487Z,77.61
2023-12-26T12:07:43.479Z,78.92
2023-12-26T12:11:06.426Z,76.02
2023-12-26T12:14:29.108Z,76.42
2023-12-26T12:17:52.306Z,75.00
2023-12-26T12:21:15.612Z,75.86
2023-12-26T12:24:19.711Z,76.98
2023-12-26T12:27:42.825Z,78.72
2023-12-26T12:31:08.526Z,75.60
2023-12-26T12:34:31.959Z,73.62
2023-12-26T12:37:54.657Z,72.39
2023-12-26T12:41:17.814Z,70.06
2023-12-26T12:44:22.060Z,71.71
2023-12-26T12:47:45.367Z,69.26
2023-12-26T12:51:08.551Z,69.47
2023-12-26T12:54:12.663Z,68.01
2023-12-26T12:57:35.701Z,69.24
2023-12-26T13:01:00.322Z,69.55
2023-12-26T13:04:25.608Z,70.53
2023-12-26T13:07:48.755Z,68.13
2023-12-26T13:10:52.886Z,66.91
2023-12-26T13:14:16.347Z,66.24
2023-12-26T13:17:39.738Z,65.76
2023-12-26T13:21:02.902Z,65.89
2023-12-26T13:24:07.076Z,65.22
2023-12-26T13:27:29.902Z,63.37
2023-12-26T13:30:52.938Z,66.10
2023-12-26T13:34:16.326Z,66.90
2023-12-26T13:37:39.404Z,67.80
2023-12-26T13:41:02.323Z,68.37
2023-12-26T13:44:25.385Z,69.53
2023-12-26T13:47:48.989Z,70.58
2023-12-26T13:51:12.370Z,71.12
2023-12-26T13:53:38.928Z,73.68
2023-12-26T13:56:05.626Z,72.70
2023-12-26T13:58:32.225Z,72.02
2023-12-26T14:00:58.811Z,72.45
2023-12-26T14:03:25.448Z,73.11
2023-12-26T14:05:52.902Z,72.02
2023-12-26T14:08:19.730Z,73.27
2023-12-26T14:10:46.576Z,72.51
2023-12-26T14:13:13.538Z,69.63
2023-12-26T14:15:40.275Z,69.48
2023-12-26T14:18:09.759Z,69.81
2023-12-26T14:20:37.088Z,67.56
2023-12-26T14:23:03.695Z,68.21
2023-12-26T14:25:31.614Z,67.69
2023-12-26T14:27:58.223Z,67.10
2023-12-26T14:30:24.844Z,66.96
2023-12-26T14:32:51.491Z,69.49
2023-12-26T14:35:19.080Z,66.62
2023-12-26T14:37:45.738Z,67.00
2023-12-26T14:40:12.263Z,67.62
2023-12-26T14:42:38.819Z,68.48
2023-12-26T14:45:05.468Z,67.10
2023-12-26T14:47:32.102Z,68.50
2023-12-26T14:49:58.708Z,67.59
2023-12-26T14:52:25.280Z,68.03
2023-12-26T14:54:51.838Z,67.36
2023-12-26T14:57:18.532Z,68.99
2023-12-26T14:59:45.220Z,68.95
2023-12-26T15:02:12.707Z,68.73
2023-12-26T15:04:41.920Z,69.52
2023-12-26T15:07:09.315Z,71.28
2023-12-26T15:09:36.073Z,72.06
2023-12-26T15:12:03.073Z,72.12
2023-12-26T15:14:41.816Z,70.68
2023-12-26T15:17:11.800Z,70.94
2023-12-26T15:19:38.828Z,69.30
2023-12-26T15:22:05.677Z,69.77
2023-12-26T15:24:32.571Z,70.01
2023-12-26T15:26:59.521Z,69.49
2023-12-26T15:29:26.275Z,67.96
2023-12-26T15:31:53.155Z,68.10
2023-12-26T15:34:20.171Z,68.31
2023-12-26T15:36:47.106Z,68.63
2023-12-26T15:39:19.167Z,67.33
2023-12-26T15:41:46.970Z,67.59
2023-12-26T15:44:13.982Z,68.30
2023-12-26T15:46:40.744Z,68.54
2023-12-26T15:49:07.615Z,69.12
2023-12-26T15:51:34.587Z,69.03
2023-12-26T15:54:01.842Z,69.65
2023-12-26T15:56:32.913Z,72.16
2023-12-26T15:58:59.751Z,69.97
2023-12-26T16:01:26.621Z,69.67
2023-12-26T16:03:57.884Z,70.02
2023-12-26T16:06:27.536Z,72.06
2023-12-26T16:08:58.620Z,69.55
2023-12-26T16:11:25.490Z,67.12
2023-12-26T16:13:53.152Z,68.65
2023-12-26T16:16:19.971Z,68.60
2023-12-26T16:18:49.280Z,70.69
2023-12-26T16:21:16.289Z,69.58
2023-12-26T16:23:43.080Z,69.83
2023-12-26T16:26:09.997Z,70.59
2023-12-26T16:28:37.182Z,71.03
2023-12-26T16:31:05.768Z,71.14
2023-12-26T16:33:34.218Z,71.03
2023-12-26T16:36:02.732Z,72.62
2023-12-26T16:38:29.666Z,69.42
2023-12-26T16:40:58.357Z,70.70
2023-12-26T16:43:26.073Z,72.02
2023-12-26T16:45:52.962Z,71.45
2023-12-26T16:48:19.884Z,72.58
2023-12-26T16:50:46.826Z,69.19
2023-12-26T16:53:13.666Z,70.34
2023-12-26T16:55:40.425Z,69.96
2023-12-26T16:58:07.212Z,69.95
2023-12-26T17:00:37.132Z,69.44
2023-12-26T17:03:06.044Z,69.92
2023-12-26T17:05:32.944Z,69.59
2023-12-26T17:07:59.702Z,70.32
2023-12-26T17:10:26.473Z,71.37
2023-12-26T17:12:53.348Z,70.41
2023-12-26T17:15:20.704Z,70.97
2023-12-26T17:17:47.510Z,71.71
2023-12-26T17:20:14.379Z,70.74
2023-12-26T17:22:42.788Z,71.02
2023-12-26T17:25:09.917Z,70.66
2023-12-26T17:27:55.395Z,70.60
2023-12-26T17:30:22.439Z,71.09
2023-12-26T17:32:50.216Z,71.26
2023-12-26T17:35:17.965Z,71.93
2023-12-26T17:37:44.913Z,71.53
2023-12-26T17:40:12.386Z,71.39
2023-12-26T17:42:39.141Z,72.24
2023-12-26T17:45:06.663Z,71.62
2023-12-26T17:47:34.118Z,72.37
2023-12-26T17:50:01.122Z,74.44
2023-12-26T17:52:28.086Z,73.18
2023-12-26T17:54:54.920Z,73.24
2023-12-26T17:57:21.804Z,73.08
2023-12-26T17:59:48.713Z,73.47
2023-12-26T18:02:15.605Z,73.61
2023-12-26T18:04:42.392Z,74.62
2023-12-26T18:07:09.184Z,73.86
2023-12-26T18:09:38.327Z,74.84
2023-12-26T18:12:05.943Z,74.53
2023-12-26T18:14:32.850Z,74.81
2023-12-26T18:16:59.596Z,74.58
2023-12-26T18:19:26.732Z,74.46
2023-12-26T18:21:53.545Z,75.33
2023-12-26T18:24:21.776Z,75.99
2023-12-26T18:26:48.570Z,77.97
2023-12-26T18:29:15.425Z,76.06
2023-12-26T18:31:45.528Z,76.75
2023-12-26T18:34:12.818Z,76.05
2023-12-26T18:36:39.808Z,76.66
2023-12-26T18:39:06.883Z,76.80
2023-12-26T18:41:33.894Z,77.51
2023-12-26T18:44:00.712Z,77.00
2023-12-26T18:46:27.462Z,78.56
2023-12-26T18:48:54.408Z,81.50
2023-12-26T18:51:28.525Z,92.42
2023-12-26T18:53:56.041Z,99.14
2023-12-26T18:56:23.577Z,100.00
2023-12-26T18:58:50.649Z,100.00
2023-12-26T19:01:17.663Z,100.00
2023-12-26T19:03:44.912Z,100.00
2023-12-26T19:06:11.938Z,100.00
2023-12-26T19:08:38.781Z,100.00
2023-12-26T19:11:06.727Z,100.00
2023-12-26T19:13:36.982Z,100.00
2023-12-26T19:16:04.158Z,100.00
2023-12-26T19:18:31.018Z,100.00
2023-12-26T19:20:57.910Z,100.00
2023-12-26T19:23:24.644Z,100.00
2023-12-26T19:25:51.441Z,100.00
2023-12-26T19:28:19.176Z,100.00
2023-12-26T19:30:46.043Z,100.00
2023-12-26T19:33:13.082Z,100.00
2023-12-26T19:35:39.916Z,100.00
2023-12-26T19:38:08.325Z,100.00
2023-12-26T19:40:35.091Z,100.00
2023-12-26T19:43:01.813Z,100.00
2023-12-26T19:45:28.666Z,100.00
2023-12-26T19:47:55.930Z,100.00
2023-12-26T19:50:23.013Z,100.00
2023-12-26T19:52:49.766Z,100.00
2023-12-26T19:55:17.418Z,100.00
2023-12-26T19:57:44.553Z,100.00
2023-12-26T20:00:14.340Z,100.00
2023-12-26T20:02:41.791Z,100.00
2023-12-26T20:05:10.525Z,100.00
2023-12-26T20:07:39.026Z,100.00
2023-12-26T20:10:06.573Z,100.00
2023-12-26T20:12:33.904Z,100.00
2023-12-26T20:15:00.950Z,100.00
2023-12-26T20:17:28.025Z,100.00
2023-12-26T20:19:54.974Z,100.00
2023-12-26T20:22:22.229Z,100.00
2023-12-26T20:24:49.007Z,100.00
2023-12-26T20:27:15.918Z,100.00
2023-12-26T20:29:42.629Z,100.00
2023-12-26T20:32:09.387Z,100.00
2023-12-26T20:34:36.175Z,100.00
2023-12-26T20:37:02.943Z,100.00
2023-12-26T20:39:29.821Z,100.00
2023-12-26T20:41:56.684Z,100.00
2023-12-26T20:44:23.853Z,100.00
2023-12-26T20:46:52.180Z,100.00
2023-12-26T20:49:20.156Z,100.00
2023-12-26T20:51:47.364Z,100.00
2023-12-26T20:54:16.412Z,100.00
2023-12-26T20:56:44.736Z,100.00
2023-12-26T20:59:11.961Z,100.00
2023-12-26T21:01:39.146Z,100.00
2023-12-26T21:04:06.585Z,100.00
2023-12-26T21:06:33.683Z,100.00
2023-12-26T21:09:00.818Z,100.00
2023-12-26T21:11:27.614Z,100.00
2023-12-26T21:13:55.929Z,100.00
2023-12-26T21:16:22.934Z,100.00
2023-12-26T21:18:53.245Z,100.00
2023-12-26T21:21:21.586Z,100.00
2023-12-26T21:23:48.861Z,100.00
2023-12-26T21:26:24.074Z,100.00
2023-12-26T21:28:51.334Z,100.00
2023-12-26T21:31:19.364Z,100.00
2023-12-26T21:33:46.415Z,100.00
2023-12-26T21:36:21.606Z,100.00
2023-12-26T21:38:48.813Z,100.00
2023-12-26T21:41:17.092Z,100.00
2023-12-26T21:43:44.127Z,100.00
2023-12-26T21:46:12.549Z,100.00
2023-12-26T21:48:42.917Z,100.00
2023-12-26T21:51:15.126Z,100.00
2023-12-26T21:53:43.164Z,100.00
2023-12-26T21:56:14.028Z,100.00
2023-12-26T21:58:41.143Z,100.00
2023-12-26T22:01:11.031Z,100.00
2023-12-26T22:03:38.682Z,100.00
2023-12-26T22:06:08.771Z,100.00
2023-12-26T22:08:35.683Z,100.00
2023-12-26T22:11:02.410Z,100.00
2023-12-26T22:13:29.193Z,100.00
2023-12-26T22:15:55.940Z,100.00
2023-12-26T22:18:23.782Z,100.00
2023-12-26T22:20:51.772Z,100.00
2023-12-26T22:23:18.722Z,100.00
2023-12-26T22:25:45.433Z,100.00
2023-12-26T22:28:12.119Z,100.00
2023-12-26T22:30:39.008Z,100.00
2023-12-26T22:33:05.922Z,100.00
2023-12-26T22:35:33.553Z,100.00
2023-12-26T22:38:00.788Z,100.00
2023-12-26T22:40:27.824Z,100.00
2023-12-26T22:42:54.559Z,99.99
2023-12-26T22:45:21.909Z,98.69
2023-12-26T22:47:48.814Z,97.92
2023-12-26T22:50:15.672Z,98.62
2023-12-26T22:52:42.626Z,98.09
2023-12-26T22:55:11.084Z,99.52
2023-12-26T22:57:38.970Z,96.66
2023-12-26T23:00:17.125Z,97.23
2023-12-26T23:02:44.002Z,97.55
2023-12-26T23:05:10.861Z,98.54
2023-12-26T23:07:37.653Z,98.49
2023-12-26T23:10:04.744Z,98.63
2023-12-26T23:12:31.569Z,99.03
2023-12-26T23:14:58.429Z,99.17
2023-12-26T23:17:25.254Z,100.00
2023-12-26T23:19:52.126Z,97.45
2023-12-26T23:22:19.151Z,98.14
2023-12-26T23:24:45.866Z,98.00
2023-12-26T23:27:12.581Z,97.34
2023-12-26T23:29:39.320Z,96.88
2023-12-26T23:32:06.385Z,97.64
2023-12-26T23:34:43.727Z,97.17
2023-12-26T23:37:15.200Z,97.39
2023-12-26T23:39:45.356Z,96.83
2023-12-26T23:42:12.441Z,96.60
2023-12-26T23:44:40.800Z,96.05
2023-12-26T23:47:11.431Z,96.81
2023-12-26T23:49:38.319Z,96.83
2023-12-26T23:52:05.826Z,97.36
2023-12-26T23:54:32.697Z,97.98
2023-12-26T23:56:59.534Z,96.35
2023-12-26T23:59:26.639Z,96.60
